Terminal Aerodrome Forecast
Issued by NWS Portland, OR

Home | Current Version | Previous Version | Text Only | Print | Product List | Glossary On
Versions: 1 2 3 4 5 6 7 8 9 10 11 12 13 14 15
000
FTUS46 KPQR 250533
TAFAST
TAF
KAST 250533Z 2506/2606 22008KT P6SM -SHRA SCT025 BKN050
     FM251000 23004KT P6SM -SHRA SCT025 BKN035 OVC050
     FM251900 25006KT P6SM VCSH SCT025 BKN045
     FM260200 19005KT P6SM SCT060 BKN100=

USA.gov is the U.S. government's official web portal to all federal, state and local government web resources and services.